createdAt,value
2017-12-21T00:00:44.620Z,0.50
2017-12-21T00:03:12.139Z,0.60
2017-12-21T00:05:39.635Z,0.50
2017-12-21T00:08:07.157Z,0.50
2017-12-21T00:10:34.658Z,0.60
2017-12-21T00:13:02.179Z,0.50
2017-12-21T00:15:30.446Z,0.50
2017-12-21T00:17:57.971Z,0.50
2017-12-21T00:20:25.465Z,0.50
2017-12-21T00:22:52.979Z,0.40
2017-12-21T00:25:20.475Z,0.40
2017-12-21T00:27:47.991Z,0.40
2017-12-21T00:30:15.486Z,0.30
2017-12-21T00:32:43.008Z,0.30
2017-12-21T00:35:10.511Z,0.30
2017-12-21T00:37:38.031Z,0.30
2017-12-21T00:40:05.527Z,0.30
2017-12-21T00:42:33.051Z,0.30
2017-12-21T00:45:00.605Z,0.30
2017-12-21T00:47:28.107Z,0.30
2017-12-21T00:49:56.374Z,0.30
2017-12-21T00:52:23.895Z,0.30
2017-12-21T00:54:51.398Z,0.30
2017-12-21T00:57:19.687Z,0.20
2017-12-21T00:59:47.957Z,0.30
2017-12-21T01:02:16.248Z,0.10
2017-12-21T01:04:43.746Z,0.10
2017-12-21T01:07:11.239Z,0.10
2017-12-21T01:09:39.522Z,0.20
2017-12-21T01:12:07.783Z,0.10
2017-12-21T01:14:35.307Z,0.10
2017-12-21T01:17:02.808Z,0.10
2017-12-21T01:19:31.099Z,0.10
2017-12-21T01:21:59.364Z,0.00
2017-12-21T01:24:27.646Z,0.00
2017-12-21T01:26:55.905Z,0.00
2017-12-21T01:29:23.422Z,0.00
2017-12-21T01:31:50.921Z,-0.10
2017-12-21T01:34:18.442Z,-0.10
2017-12-21T01:36:45.938Z,0.00
2017-12-21T01:39:13.461Z,-0.10
2017-12-21T01:41:40.963Z,-0.10
2017-12-21T01:44:09.250Z,-0.20
2017-12-21T01:46:37.518Z,-0.20
2017-12-21T01:49:05.802Z,-0.10
2017-12-21T01:51:34.071Z,-0.20
2017-12-21T01:54:02.367Z,-0.30
2017-12-21T01:56:29.871Z,-0.30
2017-12-21T01:58:57.436Z,-0.20
2017-12-21T02:01:24.939Z,-0.30
2017-12-21T02:03:52.442Z,-0.20
2017-12-21T02:06:19.958Z,-0.20
2017-12-21T02:08:47.460Z,-0.20
2017-12-21T02:11:14.987Z,-0.20
2017-12-21T02:13:42.486Z,-0.20
2017-12-21T02:16:10.003Z,-0.20
2017-12-21T02:18:37.506Z,-0.20
2017-12-21T02:21:05.026Z,-0.20
2017-12-21T02:23:32.534Z,-0.20
2017-12-21T02:26:00.059Z,-0.20
2017-12-21T02:28:27.618Z,-0.20
2017-12-21T02:30:55.086Z,-0.20
2017-12-21T02:33:22.611Z,-0.10
2017-12-21T02:35:50.114Z,-0.20
2017-12-21T02:38:17.642Z,-0.10
2017-12-21T02:40:45.143Z,-0.20
2017-12-21T02:43:13.431Z,-0.20
2017-12-21T02:45:41.699Z,-0.20
2017-12-21T02:48:09.983Z,-0.20
2017-12-21T02:50:38.251Z,-0.20
2017-12-21T02:53:06.554Z,-0.20
2017-12-21T02:55:34.061Z,-0.20
2017-12-21T02:58:01.566Z,-0.20
2017-12-21T03:00:29.090Z,-0.10
2017-12-21T03:02:56.595Z,-0.20
2017-12-21T03:05:24.118Z,-0.20
2017-12-21T03:07:52.378Z,-0.10
2017-12-21T03:10:19.894Z,-0.10
2017-12-21T03:12:47.394Z,-0.10
2017-12-21T03:15:14.906Z,0.00
2017-12-21T03:17:42.403Z,0.00
2017-12-21T03:20:09.915Z,0.00
2017-12-21T03:22:37.415Z,0.00
2017-12-21T03:25:04.934Z,0.00
2017-12-21T03:27:32.432Z,0.00
2017-12-21T03:29:59.955Z,-0.10
2017-12-21T03:32:27.450Z,0.00
2017-12-21T03:34:54.966Z,0.00
2017-12-21T03:37:22.466Z,0.00
2017-12-21T03:39:49.977Z,0.00
2017-12-21T03:42:17.477Z,0.00
2017-12-21T03:44:44.991Z,0.00
2017-12-21T03:47:12.494Z,0.00
2017-12-21T03:49:40.014Z,0.00
2017-12-21T03:52:07.519Z,0.00
2017-12-21T03:54:35.014Z,0.00
2017-12-21T03:57:02.534Z,0.00
2017-12-21T03:59:30.026Z,0.00
2017-12-21T04:01:58.307Z,0.10
2017-12-21T04:04:25.807Z,0.10
2017-12-21T04:06:53.322Z,0.10
2017-12-21T04:09:20.818Z,0.10
2017-12-21T04:11:48.343Z,0.00
2017-12-21T04:14:15.839Z,0.00
2017-12-21T04:16:43.334Z,0.00
2017-12-21T04:19:11.614Z,0.00
2017-12-21T04:21:39.874Z,0.00
2017-12-21T04:24:07.395Z,-0.10
2017-12-21T04:26:34.894Z,-0.10
2017-12-21T04:29:03.181Z,-0.10
2017-12-21T04:31:31.447Z,0.00
2017-12-21T04:33:59.726Z,0.00
2017-12-21T04:36:27.982Z,0.00
2017-12-21T04:38:55.528Z,-0.10
2017-12-21T04:41:23.071Z,0.00
2017-12-21T04:43:50.571Z,0.00
2017-12-21T04:46:18.086Z,0.00
2017-12-21T04:48:45.583Z,0.00
2017-12-21T04:51:13.103Z,-0.10
2017-12-21T04:53:40.594Z,0.00
2017-12-21T04:56:08.114Z,-0.10
2017-12-21T04:58:35.615Z,-0.10
2017-12-21T05:01:03.130Z,-0.10
2017-12-21T05:03:30.635Z,-0.10
2017-12-21T05:05:58.927Z,-0.10
2017-12-21T05:08:27.199Z,-0.10
2017-12-21T05:10:55.482Z,-0.10
2017-12-21T05:13:23.750Z,-0.10
2017-12-21T05:15:52.038Z,-0.10
2017-12-21T05:18:19.535Z,-0.10
2017-12-21T05:20:47.050Z,-0.10
2017-12-21T05:23:14.564Z,-0.10
2017-12-21T05:25:42.077Z,-0.10
2017-12-21T05:28:09.575Z,-0.10
2017-12-21T05:30:37.099Z,-0.10
2017-12-21T05:33:04.599Z,-0.10
2017-12-21T05:35:32.118Z,-0.10
2017-12-21T05:37:59.621Z,-0.10
2017-12-21T05:40:27.147Z,-0.20
2017-12-21T05:42:54.646Z,-0.20
2017-12-21T05:45:22.167Z,-0.20
2017-12-21T05:47:49.671Z,-0.10
2017-12-21T05:50:17.959Z,-0.10
2017-12-21T05:52:46.222Z,0.00
2017-12-21T05:55:14.543Z,0.00
2017-12-21T05:57:42.047Z,0.00
2017-12-21T06:00:09.548Z,-0.10
2017-12-21T06:02:37.111Z,-0.10
2017-12-21T06:05:04.618Z,-0.10
2017-12-21T06:07:32.140Z,-0.10
2017-12-21T06:09:59.638Z,-0.10
2017-12-21T06:12:27.150Z,-0.10
2017-12-21T06:14:54.651Z,-0.10
2017-12-21T06:17:22.169Z,-0.10
2017-12-21T06:19:49.662Z,-0.20
2017-12-21T06:22:17.188Z,-0.10
2017-12-21T06:24:44.682Z,-0.10
2017-12-21T06:27:12.187Z,-0.10
2017-12-21T06:29:39.706Z,-0.10
2017-12-21T06:32:07.219Z,-0.10
2017-12-21T06:34:34.730Z,-0.10
2017-12-21T06:37:03.210Z,-0.10
2017-12-21T06:39:31.498Z,0.20
2017-12-21T06:41:59.762Z,0.10
2017-12-21T06:44:28.042Z,0.20
2017-12-21T06:46:56.311Z,0.20
2017-12-21T06:49:24.592Z,0.40
2017-12-21T06:51:52.862Z,0.40
2017-12-21T06:54:21.149Z,0.30
2017-12-21T06:56:49.415Z,0.30
2017-12-21T06:59:17.708Z,0.40
2017-12-21T07:01:45.202Z,0.30
2017-12-21T07:04:12.723Z,0.40
2017-12-21T07:06:40.222Z,0.30
2017-12-21T07:09:07.738Z,0.30
2017-12-21T07:11:36.004Z,0.30
2017-12-21T07:14:04.277Z,0.40
2017-12-21T07:16:32.562Z,0.40
2017-12-21T07:19:00.827Z,0.40
2017-12-21T07:21:29.118Z,0.30
2017-12-21T07:23:56.618Z,0.30
2017-12-21T07:26:24.139Z,0.20
2017-12-21T07:28:51.633Z,0.30
2017-12-21T07:31:19.146Z,0.30
2017-12-21T07:33:47.423Z,0.40
2017-12-21T07:36:14.947Z,0.40
2017-12-21T07:38:42.455Z,0.50
2017-12-21T07:41:09.979Z,0.50
2017-12-21T07:43:38.252Z,0.40
2017-12-21T07:46:05.771Z,0.40
2017-12-21T07:48:33.270Z,0.40
2017-12-21T07:51:00.788Z,0.50
2017-12-21T07:53:28.292Z,0.50
2017-12-21T07:55:56.583Z,0.60
2017-12-21T07:58:24.850Z,0.60
2017-12-21T08:00:53.106Z,0.70
2017-12-21T08:03:20.677Z,0.60
2017-12-21T08:05:48.130Z,0.70
2017-12-21T08:08:15.643Z,0.70
2017-12-21T08:10:43.139Z,0.60
2017-12-21T08:13:10.685Z,0.60
2017-12-21T08:15:38.169Z,0.70
2017-12-21T08:18:06.456Z,0.70
2017-12-21T08:20:34.719Z,0.80
2017-12-21T08:23:03.000Z,0.90
2017-12-21T08:25:31.260Z,1.00
2017-12-21T08:27:58.815Z,1.00
2017-12-21T08:30:26.310Z,0.90
2017-12-21T08:32:53.802Z,0.80
2017-12-21T08:35:21.323Z,1.00
2017-12-21T08:37:48.819Z,1.00
2017-12-21T08:40:16.331Z,1.10
2017-12-21T08:42:44.591Z,1.30
2017-12-21T08:45:12.882Z,1.50
2017-12-21T08:47:40.390Z,1.50
2017-12-21T08:50:07.903Z,1.50
2017-12-21T08:52:35.399Z,1.60
2017-12-21T08:55:02.916Z,1.70
2017-12-21T08:57:30.416Z,1.80
2017-12-21T08:59:57.935Z,2.00
2017-12-21T09:02:25.427Z,2.10
2017-12-21T09:04:52.938Z,2.00
2017-12-21T09:07:21.199Z,2.30
2017-12-21T09:09:48.719Z,2.30
2017-12-21T09:12:16.219Z,2.50
2017-12-21T09:14:44.552Z,2.70
2017-12-21T09:17:12.048Z,2.70
2017-12-21T09:19:39.553Z,2.70
2017-12-21T09:22:07.063Z,2.80
2017-12-21T09:24:34.558Z,2.90
2017-12-21T09:27:02.075Z,2.90
2017-12-21T09:29:29.575Z,3.00
2017-12-21T09:31:57.093Z,3.00
2017-12-21T09:34:24.582Z,3.00
2017-12-21T09:36:52.103Z,2.90
2017-12-21T09:39:19.608Z,3.00
2017-12-21T09:41:47.127Z,3.20
2017-12-21T09:44:14.632Z,3.00
2017-12-21T09:46:42.131Z,3.00
2017-12-21T09:49:09.644Z,3.00
2017-12-21T09:51:37.138Z,3.10
2017-12-21T09:54:04.652Z,3.10
2017-12-21T09:56:32.155Z,3.20
2017-12-21T09:58:59.680Z,3.10
2017-12-21T10:01:27.174Z,3.00
2017-12-21T10:03:54.682Z,3.20
2017-12-21T10:06:22.175Z,3.20
2017-12-21T10:08:49.690Z,3.30
2017-12-21T10:11:17.955Z,3.40
2017-12-21T10:13:46.236Z,3.50
2017-12-21T10:16:14.503Z,3.50
2017-12-21T10:18:42.788Z,3.40
2017-12-21T10:21:11.054Z,3.30
2017-12-21T10:23:39.334Z,3.50
2017-12-21T10:26:07.598Z,3.40
2017-12-21T10:28:35.114Z,3.40
2017-12-21T10:31:02.607Z,3.50
2017-12-21T10:33:30.115Z,3.50
2017-12-21T10:35:57.668Z,3.60
2017-12-21T10:38:25.178Z,3.70
2017-12-21T10:40:52.674Z,3.70
2017-12-21T10:43:20.187Z,3.60
2017-12-21T10:45:47.678Z,3.50
2017-12-21T10:48:15.211Z,3.50
2017-12-21T10:50:42.707Z,3.50
2017-12-21T10:53:10.235Z,3.40
2017-12-21T10:55:37.731Z,3.40
2017-12-21T10:58:05.245Z,3.60
2017-12-21T11:00:32.745Z,3.60
2017-12-21T11:03:00.253Z,3.70
2017-12-21T11:05:28.546Z,3.90
2017-12-21T11:07:56.817Z,4.00
2017-12-21T11:10:24.336Z,4.00
2017-12-21T11:12:51.831Z,4.00
2017-12-21T11:15:19.374Z,4.00
2017-12-21T11:17:46.866Z,4.10
2017-12-21T11:20:15.142Z,4.10
2017-12-21T11:22:43.399Z,4.00
2017-12-21T11:25:10.919Z,4.00
2017-12-21T11:27:38.410Z,4.00
2017-12-21T11:30:05.934Z,4.10
2017-12-21T11:32:33.434Z,4.30
2017-12-21T11:35:00.951Z,4.20
2017-12-21T11:37:28.447Z,4.30
2017-12-21T11:39:55.959Z,4.40
2017-12-21T11:42:23.453Z,4.30
2017-12-21T11:44:50.970Z,4.30
2017-12-21T11:47:18.462Z,4.30
2017-12-21T11:49:45.950Z,4.50
2017-12-21T11:52:14.232Z,4.60
2017-12-21T11:54:42.496Z,4.50
2017-12-21T11:57:10.777Z,4.50
2017-12-21T11:59:39.040Z,4.60
2017-12-21T12:02:06.558Z,4.60
2017-12-21T12:04:34.054Z,4.60
2017-12-21T12:07:01.566Z,4.60
2017-12-21T12:09:29.071Z,4.60
2017-12-21T12:11:56.578Z,4.60
2017-12-21T12:14:24.067Z,4.50
2017-12-21T12:16:51.579Z,4.40
2017-12-21T12:19:19.075Z,4.40
2017-12-21T12:21:46.595Z,4.30
2017-12-21T12:24:14.093Z,4.20
2017-12-21T12:26:41.610Z,4.40
2017-12-21T12:29:09.106Z,4.50
2017-12-21T12:31:36.622Z,4.50
2017-12-21T12:34:04.118Z,4.60
2017-12-21T12:36:31.619Z,4.50
2017-12-21T12:38:59.958Z,4.50
2017-12-21T12:41:27.431Z,4.50
2017-12-21T12:43:54.947Z,4.50
2017-12-21T12:46:22.443Z,4.50
2017-12-21T12:48:49.955Z,4.50
2017-12-21T12:51:17.446Z,4.50
2017-12-21T12:53:44.958Z,4.40
2017-12-21T12:56:12.454Z,4.50
2017-12-21T12:58:39.972Z,4.50
2017-12-21T13:01:07.475Z,4.50
2017-12-21T13:03:34.990Z,4.50
2017-12-21T13:06:02.491Z,4.40
2017-12-21T13:08:30.012Z,4.40
2017-12-21T13:10:57.507Z,4.30
2017-12-21T13:13:25.048Z,4.40
2017-12-21T13:15:52.603Z,4.20
2017-12-21T13:20:54.647Z,4.10
2017-12-21T13:23:22.934Z,4.20
2017-12-21T13:25:51.186Z,4.10
2017-12-21T13:28:18.699Z,4.10
2017-12-21T13:30:46.200Z,4.10
2017-12-21T13:33:13.720Z,4.10
2017-12-21T13:35:41.219Z,4.00
2017-12-21T13:38:08.734Z,4.10
2017-12-21T13:40:36.250Z,4.20
2017-12-21T13:43:04.523Z,4.30
2017-12-21T13:45:32.783Z,4.20
2017-12-21T13:48:01.071Z,4.00
2017-12-21T13:50:29.334Z,4.30
2017-12-21T13:52:56.854Z,4.20
2017-12-21T13:55:24.347Z,4.20
2017-12-21T13:57:51.865Z,4.10
2017-12-21T14:00:19.360Z,4.00
2017-12-21T14:02:46.875Z,3.80
2017-12-21T14:05:14.374Z,3.70
2017-12-21T14:07:41.891Z,4.00
2017-12-21T14:10:09.391Z,4.00
2017-12-21T14:12:36.891Z,3.90
2017-12-21T14:15:04.402Z,3.90
2017-12-21T14:17:31.894Z,3.80
2017-12-21T14:20:00.171Z,3.90
2017-12-21T14:22:27.682Z,3.80
2017-12-21T14:24:55.211Z,3.60
2017-12-21T14:27:22.715Z,3.50
2017-12-21T14:29:50.231Z,3.50
2017-12-21T14:32:17.737Z,3.40
2017-12-21T14:34:45.256Z,3.30
2017-12-21T14:37:12.746Z,3.20
2017-12-21T14:39:40.264Z,3.30
2017-12-21T14:42:07.760Z,3.30
2017-12-21T14:44:35.312Z,3.30
2017-12-21T14:47:02.796Z,3.30
2017-12-21T14:49:31.075Z,3.00
2017-12-21T14:51:59.340Z,3.00
2017-12-21T14:54:27.631Z,3.10
2017-12-21T14:56:55.898Z,2.90
2017-12-21T14:59:24.192Z,3.10
2017-12-21T15:01:52.454Z,3.00
2017-12-21T15:04:20.742Z,3.10
2017-12-21T15:06:48.239Z,3.10
2017-12-21T15:09:15.760Z,3.10
2017-12-21T15:11:43.258Z,3.00
2017-12-21T15:14:10.751Z,2.90
2017-12-21T15:16:38.271Z,2.80
2017-12-21T15:19:05.762Z,2.80
2017-12-21T15:21:33.279Z,2.80
2017-12-21T15:24:00.775Z,3.00
2017-12-21T15:26:28.292Z,3.10
2017-12-21T15:28:55.791Z,3.00
2017-12-21T15:31:23.311Z,3.00
2017-12-21T15:33:50.812Z,2.90
2017-12-21T15:36:18.331Z,2.90
2017-12-21T15:38:45.845Z,3.00
2017-12-21T15:41:14.127Z,2.90
2017-12-21T15:43:42.391Z,2.80
2017-12-21T15:46:10.674Z,2.70
2017-12-21T15:48:38.938Z,2.70
2017-12-21T15:51:07.208Z,2.70
2017-12-21T15:53:34.721Z,2.70
2017-12-21T15:56:02.216Z,2.70
2017-12-21T15:58:29.730Z,2.80
2017-12-21T16:00:57.222Z,2.80
2017-12-21T16:03:24.803Z,2.80
2017-12-21T16:05:52.284Z,2.80
2017-12-21T16:08:19.802Z,2.80
2017-12-21T16:10:47.298Z,2.90
2017-12-21T16:13:14.819Z,2.70
2017-12-21T16:15:42.315Z,2.80
2017-12-21T16:18:09.842Z,2.80
2017-12-21T16:20:37.339Z,2.80
2017-12-21T16:23:04.854Z,2.90
2017-12-21T16:25:32.364Z,2.90
2017-12-21T16:28:00.711Z,2.70
2017-12-21T16:30:29.007Z,2.90
2017-12-21T16:32:56.506Z,2.90
2017-12-21T16:35:24.019Z,2.90
2017-12-21T16:37:51.515Z,2.80
2017-12-21T16:40:19.039Z,2.80
2017-12-21T16:42:46.543Z,2.80
2017-12-21T16:45:14.058Z,2.70
2017-12-21T16:47:41.560Z,2.80
2017-12-21T16:50:09.088Z,2.90
2017-12-21T16:52:36.594Z,3.00
2017-12-21T16:55:04.096Z,3.00
2017-12-21T16:57:31.615Z,3.00
2017-12-21T16:59:59.115Z,3.00
2017-12-21T17:02:26.640Z,3.00
2017-12-21T17:04:54.904Z,3.00
2017-12-21T17:07:22.427Z,3.00
2017-12-21T17:09:49.932Z,3.00
2017-12-21T17:12:18.221Z,3.00
2017-12-21T17:14:45.717Z,3.00
2017-12-21T17:17:13.235Z,3.00
2017-12-21T17:19:41.507Z,3.10
2017-12-21T17:22:09.796Z,3.20
2017-12-21T17:24:37.315Z,3.20
2017-12-21T17:27:04.815Z,3.10
2017-12-21T17:29:32.331Z,3.00
2017-12-21T17:31:59.828Z,3.00
2017-12-21T17:34:27.351Z,3.10
2017-12-21T17:36:54.846Z,3.20
2017-12-21T17:39:22.367Z,3.20
2017-12-21T17:41:49.871Z,3.40
2017-12-21T17:44:17.395Z,3.30
2017-12-21T17:46:45.705Z,3.10
2017-12-21T17:49:14.151Z,3.10
2017-12-21T17:51:42.423Z,3.20
2017-12-21T17:54:10.687Z,3.20
2017-12-21T17:56:38.212Z,3.10
2017-12-21T17:59:05.760Z,3.10
2017-12-21T18:01:33.283Z,3.20
2017-12-21T18:04:01.538Z,3.30
2017-12-21T18:06:29.053Z,3.30
2017-12-21T18:11:31.141Z,3.20
2017-12-21T18:13:58.680Z,3.20
2017-12-21T18:16:26.943Z,3.20
2017-12-21T18:18:55.217Z,3.20
2017-12-21T18:21:23.501Z,3.20
2017-12-21T18:23:51.037Z,3.20
2017-12-21T18:26:19.369Z,3.20
2017-12-21T18:28:46.871Z,3.20
2017-12-21T18:31:15.202Z,3.10
2017-12-21T18:33:42.756Z,3.10
2017-12-21T18:36:10.375Z,3.20
2017-12-21T18:38:37.890Z,3.20
2017-12-21T18:41:05.467Z,3.30
2017-12-21T18:43:33.010Z,3.20
2017-12-21T18:46:00.570Z,3.30
2017-12-21T18:48:28.112Z,3.30
2017-12-21T18:50:55.634Z,3.30
2017-12-21T18:53:23.950Z,3.20
2017-12-21T18:55:51.521Z,3.10
2017-12-21T18:58:19.019Z,3.20
2017-12-21T19:00:47.306Z,3.10
2017-12-21T19:03:15.612Z,3.10
2017-12-21T19:05:43.130Z,3.10
2017-12-21T19:08:11.394Z,3.00
2017-12-21T19:10:38.916Z,2.90
2017-12-21T19:13:06.474Z,3.10
2017-12-21T19:15:34.022Z,3.20
2017-12-21T19:18:01.589Z,3.20
2017-12-21T19:20:29.086Z,3.20
2017-12-21T19:22:56.654Z,3.10
2017-12-21T19:25:24.923Z,3.10
2017-12-21T19:27:52.489Z,3.10
2017-12-21T19:30:20.806Z,3.30
2017-12-21T19:32:48.377Z,3.20
2017-12-21T19:35:15.922Z,3.20
2017-12-21T19:37:43.459Z,3.00
2017-12-21T19:40:11.790Z,2.90
2017-12-21T19:42:39.290Z,2.90
2017-12-21T19:45:07.604Z,2.80
2017-12-21T19:47:35.157Z,2.80
2017-12-21T19:50:02.706Z,2.80
2017-12-21T19:52:30.246Z,2.80
2017-12-21T19:54:58.560Z,2.80
2017-12-21T19:57:26.059Z,2.80
2017-12-21T19:59:53.610Z,2.80
2017-12-21T20:02:21.174Z,2.80
2017-12-21T20:04:48.662Z,2.80
2017-12-21T20:07:16.187Z,2.80
2017-12-21T20:09:43.734Z,2.80
2017-12-21T20:12:11.299Z,2.80
2017-12-21T20:14:38.785Z,2.80
2017-12-21T20:17:07.081Z,2.90
2017-12-21T20:19:34.694Z,2.90
2017-12-21T20:22:02.282Z,2.80
2017-12-21T20:24:30.625Z,2.80
2017-12-21T20:26:58.315Z,2.80
2017-12-21T20:29:25.901Z,2.80
2017-12-21T20:31:53.458Z,2.80
2017-12-21T20:34:21.138Z,2.80
2017-12-21T20:36:48.751Z,2.80
2017-12-21T20:39:17.134Z,2.80
2017-12-21T20:41:45.473Z,2.80
2017-12-21T20:44:13.066Z,2.80
2017-12-21T20:46:41.373Z,2.80
2017-12-21T20:49:08.946Z,2.80
2017-12-21T20:51:36.493Z,2.80
2017-12-21T20:54:04.072Z,2.90
2017-12-21T20:56:31.630Z,2.80
2017-12-21T20:58:59.263Z,2.80
2017-12-21T21:01:26.843Z,2.80
2017-12-21T21:03:54.412Z,2.80
2017-12-21T21:06:21.982Z,2.90
2017-12-21T21:08:49.531Z,2.80
2017-12-21T21:11:17.095Z,2.80
2017-12-21T21:13:44.589Z,2.80
2017-12-21T21:16:12.102Z,2.80
2017-12-21T21:18:39.655Z,2.80
2017-12-21T21:21:07.237Z,2.80
2017-12-21T21:23:34.731Z,2.80
2017-12-21T21:26:03.048Z,2.80
2017-12-21T21:28:30.623Z,2.80
2017-12-21T21:30:58.171Z,2.80
2017-12-21T21:33:25.751Z,2.80
2017-12-21T21:35:53.298Z,2.80
2017-12-21T21:38:20.862Z,2.80
2017-12-21T21:40:48.402Z,2.80
2017-12-21T21:43:15.951Z,2.80
2017-12-21T21:45:43.500Z,2.80
2017-12-21T21:48:11.051Z,2.80
2017-12-21T21:50:39.322Z,2.80
2017-12-21T21:53:07.635Z,2.80
2017-12-21T21:55:35.199Z,2.80
2017-12-21T21:58:02.778Z,2.70
2017-12-21T22:00:30.351Z,2.80
2017-12-21T22:02:57.898Z,2.80
2017-12-21T22:05:25.462Z,2.80
2017-12-21T22:07:53.013Z,2.80
2017-12-21T22:10:20.586Z,2.80
2017-12-21T22:12:48.150Z,2.80
2017-12-21T22:15:15.718Z,2.80
2017-12-21T22:17:44.034Z,2.70
2017-12-21T22:20:11.628Z,2.80
2017-12-21T22:22:39.144Z,2.80
2017-12-21T22:25:06.699Z,2.80
2017-12-21T22:27:34.256Z,2.80
2017-12-21T22:30:02.575Z,2.90
2017-12-21T22:32:30.133Z,2.90
2017-12-21T22:34:57.671Z,2.90
2017-12-21T22:37:25.922Z,2.90
2017-12-21T22:39:54.235Z,2.90
2017-12-21T22:42:21.803Z,2.90
2017-12-21T22:44:49.347Z,2.90
2017-12-21T22:47:16.900Z,2.90
2017-12-21T22:49:44.441Z,2.90
2017-12-21T22:52:11.988Z,3.00
2017-12-21T22:54:40.288Z,3.00
2017-12-21T22:57:07.840Z,3.00
2017-12-21T22:59:35.387Z,2.90
2017-12-21T23:02:02.956Z,2.90
2017-12-21T23:04:30.517Z,2.90
2017-12-21T23:06:58.066Z,3.00
2017-12-21T23:09:26.374Z,2.90
2017-12-21T23:11:53.925Z,2.90
2017-12-21T23:14:21.456Z,2.90
2017-12-21T23:16:49.782Z,3.00
2017-12-21T23:19:17.325Z,3.00
2017-12-21T23:21:44.881Z,3.00
2017-12-21T23:24:12.419Z,3.00
2017-12-21T23:26:39.935Z,2.90
2017-12-21T23:29:07.427Z,2.90
2017-12-21T23:31:34.998Z,2.90
2017-12-21T23:34:02.541Z,2.90
2017-12-21T23:36:30.868Z,3.00
2017-12-21T23:38:58.383Z,3.00
2017-12-21T23:41:26.638Z,3.00
2017-12-21T23:43:54.209Z,3.00
2017-12-21T23:46:22.510Z,3.00
2017-12-21T23:48:50.065Z,3.00
2017-12-21T23:51:17.554Z,3.00
2017-12-21T23:53:45.062Z,3.00
2017-12-21T23:56:13.319Z,3.00
2017-12-21T23:58:40.830Z,3.00
